Karoi, Zimbabwe
Current Conditions -  °F | °C
As of 7:00 AM on Wednesday 22 Oct 2014 (Local Time) from FVHA Reporting Station
Clear Clear  
Wind Chill: 63°   Ceiling: Unl
Heat Index: 63°   Visibility: 6mi
Dew Point: 50°   Wind: 8mph
Humidity: 63%   Direction: 110°ESE
Pressure: 30.33"   Gusts: NA
Location:  16.82°S, 29.68°E
Report Text: FVHA 220500Z 11007KT 080V150 CAVOK 17/10 Q1027 NOSIG
Loading
Personal Weather Stations






























Interactive Weather Map
Tropical Storm Tracking
New forecast layout! Learn more

10-Day Weather Forecast

Advertisements
Track Severe Weather on mobile